| time (UTC) | temp C | wind direction | speed KPH | gust KPH | rain 1hr cm | rain 24hr cm | rain mn cm | humidity % | barometer mb |
| 20260503211950 | 23 | 6 | 6.4 | 9.7 | 0.00 | 0.00 | 0.00 | 42 | 1011.9 |
| 20260503211447 | 23 | 74 | 4.8 | 9.7 | 0.00 | 0.00 | 0.00 | 42 | 1011.9 |
| 20260503210942 | 23 | 83 | 0.0 | 4.8 | 0.00 | 0.00 | 0.00 | 42 | 1012.0 |
| 20260503210439 | 23 | 55 | 1.6 | 9.7 | 0.00 | 0.00 | 0.00 | 42 | 1012.1 |
| 20260503205933 | 23 | 302 | 3.2 | 9.7 | 0.00 | 0.00 | 0.00 | 43 | 1012.2 |
| 20260503205431 | 22 | 38 | 4.8 | 6.4 | 0.00 | 0.00 | 0.00 | 44 | 1012.2 |
| 20260503204927 | 21 | 95 | 1.6 | 3.2 | 0.00 | 0.00 | 0.00 | 52 | 1012.2 |
| 20260503204424 | 21 | 94 | 3.2 | 3.2 | 0.00 | 0.00 | 0.00 | 52 | 1012.4 |
| 20260503203921 | 21 | 99 | 3.2 | 4.8 | 0.00 | 0.00 | 0.00 | 53 | 1012.4 |
| 20260503203419 | 21 | 100 | 3.2 | 4.8 | 0.00 | 0.00 | 0.00 | 54 | 1012.3 |
| 20260503202915 | 20 | 120 | 1.6 | 3.2 | 0.00 | 0.00 | 0.00 | 57 | 1012.5 |
| 20260503202414 | 20 | 92 | 1.6 | 4.8 | 0.00 | 0.00 | 0.00 | 57 | 1012.4 |
| 20260503201912 | 20 | 98 | 1.6 | 4.8 | 0.00 | 0.00 | 0.00 | 55 | 1012.3 |
| 20260503201408 | 20 | 107 | 3.2 | 4.8 | 0.00 | 0.00 | 0.00 | 53 | 1012.5 |
| 20260503200906 | 20 | 119 | 3.2 | 6.4 | 0.00 | 0.00 | 0.00 | 55 | 1012.5 |
| 20260503200402 | 21 | 200 | 4.8 | 9.7 | 0.00 | 0.00 | 0.00 | 52 | 1012.6 |
| 20260503195859 | 21 | 161 | 4.8 | 6.4 | 0.00 | 0.00 | 0.00 | 53 | 1012.6 |
| 20260503195355 | 21 | 219 | 6.4 | 9.7 | 0.00 | 0.00 | 0.00 | 54 | 1012.7 |
| 20260503194853 | 21 | 172 | 4.8 | 4.8 | 0.00 | 0.00 | 0.00 | 54 | 1012.7 |
| 20260503194349 | 21 | 147 | 4.8 | 6.4 | 0.00 | 0.00 | 0.00 | 52 | 1012.8 |
| 20260503193845 | 22 | 96 | 3.2 | 4.8 | 0.00 | 0.00 | 0.00 | 52 | 1012.9 |
| 20260503193341 | 22 | 104 | 1.6 | 3.2 | 0.00 | 0.00 | 0.00 | 50 | 1013.0 |
| 20260503192837 | 21 | 86 | 1.6 | 1.6 | 0.00 | 0.00 | 0.00 | 54 | 1013.0 |
| 20260503192333 | 21 | 74 | 1.6 | 3.2 | 0.00 | 0.00 | 0.00 | 52 | 1012.9 |
| 20260503191829 | 21 | 94 | 3.2 | 6.4 | 0.00 | 0.00 | 0.00 | 54 | 1012.9 |
| 20260503191326 | 20 | 138 | 3.2 | 4.8 | 0.00 | 0.00 | 0.00 | 56 | 1013.1 |
| 20260503190824 | 21 | 178 | 6.4 | 6.4 | 0.00 | 0.00 | 0.00 | 55 | 1013.0 |
| 20260503190321 | 20 | 44 | 3.2 | 3.2 | 0.00 | 0.00 | 0.00 | 58 | 1013.0 |
| 20260503185818 | 20 | 86 | 1.6 | 4.8 | 0.00 | 0.00 | 0.00 | 56 | 1013.2 |
| 20260503185314 | 20 | 87 | 1.6 | 4.8 | 0.00 | 0.00 | 0.00 | 56 | 1013.4 |
| 20260503184813 | 20 | 83 | 1.6 | 4.8 | 0.00 | 0.00 | 0.00 | 57 | 1013.2 |
| 20260503184310 | 20 | 67 | 1.6 | 4.8 | 0.00 | 0.00 | 0.00 | 59 | 1013.3 |
| 20260503183805 | 20 | 114 | 1.6 | 3.2 | 0.00 | 0.00 | 0.00 | 60 | 1013.3 |
| 20260503183303 | 19 | 128 | 4.8 | 9.7 | 0.00 | 0.00 | 0.00 | 59 | 1013.4 |
| 20260503182800 | 20 | 95 | 3.2 | 4.8 | 0.00 | 0.00 | 0.00 | 60 | 1013.6 |
| 20260503182300 | 20 | 171 | 3.2 | 9.7 | 0.00 | 0.00 | 0.00 | 59 | 1013.5 |
| 20260503181756 | 20 | 28 | 6.4 | 9.7 | 0.00 | 0.00 | 0.00 | 59 | 1013.6 |
| 20260503181253 | 20 | 131 | 3.2 | 6.4 | 0.00 | 0.00 | 0.00 | 60 | 1013.5 |
| 20260503180749 | 19 | 96 | 0.0 | 3.2 | 0.00 | 0.00 | 0.00 | 61 | 1013.5 |
| 20260503180248 | 20 | 102 | 6.4 | 6.4 | 0.00 | 0.00 | 0.00 | 59 | 1013.6 |
| 20260503175743 | 18 | 96 | 0.0 | 1.6 | 0.00 | 0.00 | 0.00 | 64 | 1013.8 |
| 20260503175242 | 20 | 112 | 3.2 | 4.8 | 0.00 | 0.00 | 0.00 | 60 | 1013.7 |
| 20260503174737 | 20 | 126 | 6.4 | 6.4 | 0.00 | 0.00 | 0.00 | 56 | 1013.8 |
| 20260503174236 | 20 | 22 | 3.2 | 3.2 | 0.00 | 0.00 | 0.00 | 51 | 1013.9 |
| 20260503173736 | 19 | 74 | 1.6 | 4.8 | 0.00 | 0.00 | 0.00 | 56 | 1013.8 |
| 20260503173232 | 18 | 78 | 1.6 | 4.8 | 0.00 | 0.00 | 0.00 | 56 | 1014.1 |
| 20260503172729 | 18 | 165 | 3.2 | 3.2 | 0.00 | 0.00 | 0.00 | 56 | 1013.9 |
| 20260503172226 | 18 | 51 | 1.6 | 4.8 | 0.00 | 0.00 | 0.00 | 57 | 1014.2 |
| 20260503171723 | 19 | 82 | 0.0 | 1.6 | 0.00 | 0.00 | 0.00 | 57 | 1013.9 |
| 20260503171220 | 18 | 92 | 0.0 | 1.6 | 0.00 | 0.00 | 0.00 | 64 | 1014.1 |
| 20260503170717 | 19 | 113 | 3.2 | 4.8 | 0.00 | 0.00 | 0.00 | 61 | 1013.9 |
| 20260503170214 | 19 | 359 | 4.8 | 4.8 | 0.00 | 0.00 | 0.00 | 58 | 1014.0 |
| 20260503160135 | 17 | 105 | 3.2 | 4.8 | 0.00 | 0.00 | 0.00 | 66 | 1014.3 |
| 20260503150605 | 17 | 91 | 1.6 | 1.6 | 0.00 | 0.00 | 0.00 | 65 | 1014.4 |
| 20260503130955 | 10 | 71 | 0.0 | 1.6 | 0.00 | 0.00 | 0.00 | 84 | 1014.0 |
| 20260503130453 | 11 | 71 | 0.0 | 0.0 | 0.00 | 0.00 | 0.00 | 82 | 1013.8 |
| 20260503110349 | 11 | 73 | 0.0 | 1.6 | 0.00 | 0.00 | 0.00 | 79 | 1014.0 |
| 20260503090240 | 12 | 70 | 1.6 | 3.2 | 0.00 | 0.00 | 0.00 | 73 | 1013.9 |
| 20260503081208 | 12 | 72 | 0.0 | 1.6 | 0.00 | 0.00 | 0.00 | 74 | 1014.0 |
| 20260503080703 | 12 | 65 | 1.6 | 1.6 | 0.00 | 0.00 | 0.00 | 75 | 1014.0 |
| 20260503080201 | 12 | 70 | 1.6 | 3.2 | 0.00 | 0.00 | 0.00 | 75 | 1014.1 |
| 20260503072637 | 12 | 68 | 1.6 | 3.2 | 0.00 | 0.00 | 0.00 | 75 | 1013.8 |
| 20260503072134 | 13 | 73 | 1.6 | 1.6 | 0.00 | 0.00 | 0.00 | 75 | 1013.9 |
| 20260503071631 | 13 | 65 | 1.6 | 1.6 | 0.00 | 0.00 | 0.00 | 74 | 1013.9 |
| 20260503071128 | 13 | 67 | 3.2 | 3.2 | 0.00 | 0.00 | 0.00 | 75 | 1014.0 |
| 20260503070625 | 13 | 67 | 1.6 | 3.2 | 0.00 | 0.00 | 0.00 | 74 | 1014.0 |
| 20260503070123 | 13 | 67 | 1.6 | 1.6 | 0.00 | 0.00 | 0.00 | 73 | 1013.9 |
| 20260503055043 | 15 | 57 | 3.2 | 3.2 | 0.00 | 0.00 | 0.00 | 65 | 1013.6 |
| 20260503054539 | 15 | 55 | 3.2 | 3.2 | 0.00 | 0.00 | 0.00 | 66 | 1013.8 |
| 20260503054037 | 15 | 52 | 3.2 | 4.8 | 0.00 | 0.00 | 0.00 | 66 | 1013.8 |
| 20260503053535 | 15 | 73 | 1.6 | 3.2 | 0.00 | 0.00 | 0.00 | 67 | 1013.8 |
| 20260503053032 | 15 | 67 | 3.2 | 3.2 | 0.00 | 0.00 | 0.00 | 67 | 1013.9 |
| 20260503052529 | 15 | 63 | 1.6 | 3.2 | 0.00 | 0.00 | 0.00 | 66 | 1014.0 |
| 20260503052025 | 15 | 71 | 1.6 | 1.6 | 0.00 | 0.00 | 0.00 | 66 | 1013.8 |
| 20260503051521 | 15 | 72 | 0.0 | 1.6 | 0.00 | 0.00 | 0.00 | 66 | 1013.8 |
| 20260503051019 | 14 | 70 | 1.6 | 1.6 | 0.00 | 0.00 | 0.00 | 68 | 1013.8 |
| 20260503050514 | 14 | 72 | 0.0 | 1.6 | 0.00 | 0.00 | 0.00 | 68 | 1013.9 |
| 20260503050012 | 15 | 75 | 0.0 | 1.6 | 0.00 | 0.00 | 0.00 | 66 | 1013.7 |
| 20260503045509 | 15 | 65 | 1.6 | 1.6 | 0.00 | 0.00 | 0.00 | 65 | 1013.9 |
| 20260503045006 | 15 | 73 | 0.0 | 1.6 | 0.00 | 0.00 | 0.00 | 65 | 1013.8 |
| 20260503044502 | 15 | 64 | 1.6 | 3.2 | 0.00 | 0.00 | 0.00 | 67 | 1013.6 |
| 20260503044000 | 15 | 71 | 1.6 | 1.6 | 0.00 | 0.00 | 0.00 | 65 | 1013.5 |
| 20260503043456 | 15 | 73 | 1.6 | 3.2 | 0.00 | 0.00 | 0.00 | 65 | 1013.7 |
| 20260503042953 | 15 | 73 | 0.0 | 1.6 | 0.00 | 0.00 | 0.00 | 66 | 1013.6 |
| 20260503042450 | 15 | 70 | 1.6 | 1.6 | 0.00 | 0.00 | 0.00 | 65 | 1013.5 |
| 20260503041946 | 15 | 72 | 0.0 | 1.6 | 0.00 | 0.00 | 0.00 | 65 | 1013.5 |
| 20260503041443 | 15 | 70 | 1.6 | 3.2 | 0.00 | 0.00 | 0.00 | 64 | 1013.4 |
| 20260503040941 | 15 | 71 | 1.6 | 1.6 | 0.00 | 0.00 | 0.00 | 64 | 1013.4 |
| 20260503040438 | 15 | 69 | 3.2 | 3.2 | 0.00 | 0.00 | 0.00 | 66 | 1013.5 |
| 20260503035935 | 15 | 65 | 0.0 | 1.6 | 0.00 | 0.00 | 0.00 | 68 | 1013.4 |
| 20260503035431 | 15 | 66 | 1.6 | 3.2 | 0.00 | 0.00 | 0.00 | 67 | 1013.4 |
| 20260503034929 | 15 | 74 | 0.0 | 3.2 | 0.00 | 0.00 | 0.00 | 68 | 1013.3 |
| 20260503034427 | 15 | 72 | 0.0 | 3.2 | 0.00 | 0.00 | 0.00 | 68 | 1013.2 |
| 20260503033923 | 15 | 74 | 0.0 | 1.6 | 0.00 | 0.00 | 0.00 | 68 | 1013.2 |
| 20260503033421 | 15 | 70 | 3.2 | 3.2 | 0.00 | 0.00 | 0.00 | 67 | 1013.0 |
| 20260503032919 | 16 | 70 | 0.0 | 1.6 | 0.00 | 0.00 | 0.00 | 69 | 1013.0 |
| 20260503032417 | 16 | 72 | 0.0 | 1.6 | 0.00 | 0.00 | 0.00 | 68 | 1013.1 |
| 20260503031914 | 16 | 75 | 0.0 | 1.6 | 0.00 | 0.00 | 0.00 | 67 | 1013.0 |
| 20260503031412 | 16 | 74 | 0.0 | 1.6 | 0.00 | 0.00 | 0.00 | 65 | 1012.9 |
| 20260503030908 | 17 | 75 | 0.0 | 0.0 | 0.00 | 0.00 | 0.00 | 64 | 1013.0 |
| 20260503030405 | 17 | 78 | 0.0 | 0.0 | 0.00 | 0.00 | 0.00 | 63 | 1012.9 |
| 20260503025901 | 17 | 80 | 0.0 | 0.0 | 0.00 | 0.00 | 0.00 | 61 | 1012.9 |
| 20260503025359 | 17 | 80 | 0.0 | 0.0 | 0.00 | 0.00 | 0.00 | 62 | 1012.9 |
| 20260503024856 | 17 | 80 | 0.0 | 0.0 | 0.00 | 0.00 | 0.00 | 61 | 1013.0 |
| 20260503024353 | 18 | 81 | 0.0 | 1.6 | 0.00 | 0.00 | 0.00 | 60 | 1012.8 |
| 20260503023850 | 18 | 122 | 1.6 | 3.2 | 0.00 | 0.00 | 0.00 | 58 | 1013.0 |
| 20260503023347 | 18 | 89 | 1.6 | 1.6 | 0.00 | 0.00 | 0.00 | 58 | 1012.9 |
| 20260503022844 | 18 | 108 | 1.6 | 1.6 | 0.00 | 0.00 | 0.00 | 57 | 1012.9 |
| 20260503022344 | 18 | 89 | 3.2 | 3.2 | 0.00 | 0.00 | 0.00 | 56 | 1013.0 |
| 20260503021840 | 18 | 101 | 1.6 | 1.6 | 0.00 | 0.00 | 0.00 | 57 | 1012.8 |
| 20260503021337 | 19 | 96 | 3.2 | 3.2 | 0.00 | 0.00 | 0.00 | 56 | 1012.8 |
| 20260503020834 | 19 | 99 | 1.6 | 3.2 | 0.00 | 0.00 | 0.00 | 55 | 1013.0 |
| 20260503020332 | 20 | 115 | 1.6 | 3.2 | 0.00 | 0.00 | 0.00 | 55 | 1013.1 |
| 20260503015828 | 20 | 113 | 3.2 | 3.2 | 0.00 | 0.00 | 0.00 | 54 | 1013.0 |
| 20260503015325 | 20 | 98 | 1.6 | 3.2 | 0.00 | 0.00 | 0.00 | 54 | 1013.0 |
| 20260503014821 | 20 | 92 | 1.6 | 3.2 | 0.00 | 0.00 | 0.00 | 54 | 1013.1 |
| 20260503014319 | 20 | 80 | 0.0 | 1.6 | 0.00 | 0.00 | 0.00 | 54 | 1013.0 |
| 20260503013816 | 20 | 83 | 0.0 | 3.2 | 0.00 | 0.00 | 0.00 | 52 | 1013.2 |
| 20260503013313 | 21 | 80 | 0.0 | 4.8 | 0.00 | 0.00 | 0.00 | 49 | 1013.1 |
| 20260503012810 | 21 | 107 | 3.2 | 3.2 | 0.00 | 0.00 | 0.00 | 46 | 1013.2 |
| 20260503012308 | 21 | 172 | 3.2 | 4.8 | 0.00 | 0.00 | 0.00 | 46 | 1013.2 |
| 20260503011804 | 22 | 107 | 1.6 | 3.2 | 0.00 | 0.00 | 0.00 | 46 | 1013.3 |
| 20260503011301 | 22 | 81 | 0.0 | 4.8 | 0.00 | 0.00 | 0.00 | 47 | 1013.2 |
| 20260503010757 | 21 | 84 | 1.6 | 4.8 | 0.00 | 0.00 | 0.00 | 46 | 1013.5 |
| 20260503010255 | 21 | 78 | 0.0 | 3.2 | 0.00 | 0.00 | 0.00 | 51 | 1013.5 |
| 20260503005752 | 21 | 157 | 6.4 | 6.4 | 0.00 | 0.00 | 0.00 | 46 | 1013.5 |
| 20260503005249 | 21 | 251 | 1.6 | 4.8 | 0.00 | 0.00 | 0.00 | 49 | 1013.4 |
| 20260503004745 | 21 | 87 | 1.6 | 1.6 | 0.00 | 0.00 | 0.00 | 53 | 1013.4 |
| 20260503004243 | 21 | 129 | 4.8 | 6.4 | 0.00 | 0.00 | 0.00 | 53 | 1013.5 |
| 20260503003740 | 21 | 111 | 3.2 | 4.8 | 0.00 | 0.00 | 0.00 | 53 | 1013.6 |
| 20260503003237 | 21 | 112 | 3.2 | 4.8 | 0.00 | 0.00 | 0.00 | 54 | 1013.4 |
| 20260503002734 | 21 | 99 | 3.2 | 3.2 | 0.00 | 0.00 | 0.00 | 55 | 1013.4 |
| 20260503002231 | 21 | 90 | 0.0 | 1.6 | 0.00 | 0.00 | 0.00 | 54 | 1013.3 |
| 20260503001727 | 21 | 98 | 1.6 | 3.2 | 0.00 | 0.00 | 0.00 | 56 | 1013.4 |
| 20260503001223 | 21 | 82 | 1.6 | 4.8 | 0.00 | 0.00 | 0.00 | 54 | 1013.4 |
| 20260503000722 | 21 | 93 | 1.6 | 9.7 | 0.00 | 0.00 | 0.00 | 52 | 1013.6 |
| 20260503000219 | 21 | 97 | 3.2 | 4.8 | 0.00 | 0.00 | 0.00 | 52 | 1013.6 |
| 20260502235715 | 21 | 88 | 1.6 | 3.2 | 0.00 | 0.00 | 0.00 | 52 | 1013.6 |
| 20260502235213 | 21 | 95 | 1.6 | 4.8 | 0.00 | 0.00 | 0.00 | 55 | 1013.6 |
| 20260502234709 | 21 | 95 | 1.6 | 4.8 | 0.00 | 0.00 | 0.00 | 54 | 1013.7 |
| 20260502234207 | 21 | 96 | 1.6 | 3.2 | 0.00 | 0.00 | 0.00 | 53 | 1013.8 |
| 20260502233702 | 21 | 96 | 1.6 | 6.4 | 0.00 | 0.00 | 0.00 | 54 | 1013.9 |
| 20260502233159 | 21 | 92 | 1.6 | 4.8 | 0.00 | 0.00 | 0.00 | 53 | 1013.9 |
| 20260502232655 | 21 | 88 | 1.6 | 6.4 | 0.00 | 0.00 | 0.00 | 55 | 1014.0 |
| 20260502232153 | 20 | 75 | 3.2 | 9.7 | 0.00 | 0.00 | 0.00 | 55 | 1014.0 |
| 20260502231649 | 20 | 192 | 3.2 | 4.8 | 0.00 | 0.00 | 0.00 | 58 | 1014.1 |
| 20260502231147 | 19 | 79 | 0.0 | 6.4 | 0.00 | 0.00 | 0.00 | 60 | 1014.1 |
| 20260502230645 | 19 | 119 | 4.8 | 6.4 | 0.00 | 0.00 | 0.00 | 59 | 1014.2 |
| 20260502230144 | 19 | 155 | 4.8 | 12.9 | 0.00 | 0.00 | 0.00 | 60 | 1014.2 |
| 20260502225639 | 19 | 198 | 6.4 | 12.9 | 0.00 | 0.00 | 0.00 | 59 | 1014.3 |
| 20260502225136 | 19 | 177 | 4.8 | 9.7 | 0.00 | 0.00 | 0.00 | 60 | 1014.2 |
| 20260502224632 | 18 | 102 | 8.0 | 14.5 | 0.00 | 0.00 | 0.00 | 60 | 1014.5 |
| 20260502224129 | 18 | 120 | 8.0 | 11.3 | 0.00 | 0.00 | 0.00 | 62 | 1014.4 |
| 20260502223627 | 19 | 161 | 6.4 | 14.5 | 0.00 | 0.00 | 0.00 | 61 | 1014.5 |
| 20260502223125 | 19 | 118 | 4.8 | 6.4 | 0.00 | 0.00 | 0.00 | 60 | 1014.6 |
| 20260502222622 | 20 | 83 | 6.4 | 9.7 | 0.00 | 0.00 | 0.00 | 59 | 1014.8 |
| 20260502222119 | 20 | 134 | 3.2 | 6.4 | 0.00 | 0.00 | 0.00 | 59 | 1014.8 |
| 20260502221614 | 20 | 85 | 3.2 | 11.3 | 0.00 | 0.00 | 0.00 | 59 | 1015.0 |
| 20260502221112 | 21 | 102 | 4.8 | 9.7 | 0.00 | 0.00 | 0.00 | 56 | 1014.9 |
| 20260502220608 | 20 | 113 | 1.6 | 6.4 | 0.00 | 0.00 | 0.00 | 55 | 1015.3 |
| 20260502220104 | 20 | 99 | 1.6 | 4.8 | 0.00 | 0.00 | 0.00 | 55 | 1015.3 |
| 20260502215601 | 20 | 88 | 1.6 | 3.2 | 0.00 | 0.00 | 0.00 | 58 | 1015.0 |
| 20260502215058 | 20 | 105 | 1.6 | 9.7 | 0.00 | 0.00 | 0.00 | 58 | 1015.2 |
| 20260502214555 | 20 | 82 | 1.6 | 3.2 | 0.00 | 0.00 | 0.00 | 57 | 1015.1 |
| 20260502214053 | 20 | 107 | 3.2 | 4.8 | 0.00 | 0.00 | 0.00 | 59 | 1015.4 |
| 20260502213549 | 20 | 86 | 1.6 | 6.4 | 0.00 | 0.00 | 0.00 | 57 | 1015.3 |
| 20260502213047 | 20 | 203 | 4.8 | 6.4 | 0.00 | 0.00 | 0.00 | 59 | 1015.2 |
| 20260502212546 | 20 | 106 | 4.8 | 9.7 | 0.00 | 0.00 | 0.00 | 58 | 1015.5 |